Great Hebei — VRFU6 — position and weather

sailwx.info

Track history (hours):
 
Tides and Currents Weather Stations Pressure Air Temp Water Temp Dewpoint Dewpoint Depression Visibility Wind Speed Wind Dir Waves Ship Positions

Great Hebei

Last reported at 2014-Jul-08 11:32 UTC. Time now 2014-Jul-23 09:50 UTC.
Position S 26°56' E 154°14'.
Warning: this ship's position is 14 days out of date.

Length 295 m; draft 15.1 m.

Type: Cargo ship. MMSI: 477617100.

Date/timePositionNaut miles runAvg speedWind from/ knotsBaromVisibWave heightAir tempDewpointWater temp
2014-Jul-08 11:32S 26°56' E 154°14'346 9.4
2014-Jul-06 22:33S 32°33' E 152°41'9 9.1
2014-Jul-06 21:33S 32°38' E 152°33'9 9.3
2014-Jul-06 20:33S 32°44' E 152°24'10 9.7
2014-Jul-06 19:33S 32°50' E 152°15'1010.5
2014-Jul-06 18:33S 32°56' E 152°05'1010.0
2014-Jul-06 17:33S 32°60' E 151°54'7 6.8
2014-Jul-06 16:33S 32°55' E 151°47'3 2.6
2014-Jul-06 15:33S 32°53' E 151°46'0 0.1
2014-Jul-06 14:31S 32°53' E 151°46'0 0.0
2014-Jul-06 13:31S 32°53' E 151°46'0 0.0
2014-Jul-06 12:31S 32°53' E 151°46'0 0.0
2014-Jul-06 11:13S 32°53' E 151°46'0 0.0
2014-Jul-06 10:31S 32°53' E 151°46'0 0.0
2014-Jul-06 09:25S 32°53' E 151°46'0 0.0
2014-Jul-06 07:31S 32°53' E 151°46'0 0.0
2014-Jul-06 06:31S 32°53' E 151°46'0 0.0
2014-Jul-06 05:31S 32°53' E 151°46'0 0.0
2014-Jul-06 04:31S 32°53' E 151°46'0 0.0
2014-Jul-06 03:31S 32°53' E 151°46'0 0.0
2014-Jul-06 02:31S 32°53' E 151°46'0 0.1
2014-Jul-06 01:31S 32°53' E 151°46'0 0.1
2014-Jul-06 00:31S 32°53' E 151°46'0 0.0
2014-Jul-05 23:31S 32°53' E 151°46'0 0.0
2014-Jul-05 22:28S 32°53' E 151°46'0 0.1
2014-Jul-05 21:31S 32°53' E 151°46'0 0.1
2014-Jul-05 20:31S 32°53' E 151°46'0 0.0
2014-Jul-05 19:31S 32°53' E 151°46'0 0.0
2014-Jul-05 18:31S 32°53' E 151°46'0 0.0
2014-Jul-05 17:31S 32°53' E 151°46'0 0.0
2014-Jul-05 16:31S 32°53' E 151°46'0 0.0
2014-Jul-05 15:31S 32°53' E 151°46'0 0.0
2014-Jul-05 14:31S 32°53' E 151°46'0 0.0
2014-Jul-05 13:31S 32°53' E 151°46'0 0.0
2014-Jul-05 12:31S 32°53' E 151°46'0 0.1
2014-Jul-05 11:31S 32°53' E 151°46'0 0.0
2014-Jul-05 10:31S 32°53' E 151°46'0 0.1
2014-Jul-05 09:31S 32°53' E 151°46'0 0.1
2014-Jul-05 08:31S 32°53' E 151°46'0 0.0
2014-Jul-05 07:25S 32°53' E 151°46'1 1.0
2014-Jul-05 06:30S 32°54' E 151°46'4 4.6
2014-Jul-05 05:34S 32°56' E 151°51'6 6.0
2014-Jul-05 04:33S 33°02' E 151°51'4 4.5
2014-Jul-05 03:33S 33°06' E 151°49'  
2014-Jun-29 23:13S 33°12' E 151°51'710.2
2014-Jun-29 22:32S 33°07' E 151°57'1010.5
2014-Jun-29 21:33S 32°60' E 152°06'10 9.9
2014-Jun-29 20:33S 32°55' E 152°16'9 9.3
2014-Jun-29 19:33S 32°51' E 152°26'9 8.8
2014-Jun-29 18:33S 32°47' E 152°35'8 8.2
2014-Jun-29 17:33S 32°44' E 152°44'8 8.0
2014-Jun-29 16:33S 32°40' E 152°53'  
Track history (hours):
 
Tides and Currents Weather Stations Pressure Air Temp Water Temp Dewpoint Dewpoint Depression Visibility Wind Speed Wind Dir Waves Ship Positions

Great Hebei

Last reported at 2014-Jul-08 11:32 UTC. Time now 2014-Jul-23 09:50 UTC.
Position S 26°56' E 154°14'.
Warning: this ship's position is 14 days out of date.

Length 295 m; draft 15.1 m.

Type: Cargo ship. MMSI: 477617100.

Date/timePositionNaut miles runAvg speedWind from/ knotsBaromVisibWave heightAir tempDewpointWater temp
2014-Jul-08 11:32S 26°56' E 154°14'346 9.4
2014-Jul-06 22:33S 32°33' E 152°41'9 9.1
2014-Jul-06 21:33S 32°38' E 152°33'9 9.3
2014-Jul-06 20:33S 32°44' E 152°24'10 9.7
2014-Jul-06 19:33S 32°50' E 152°15'1010.5
2014-Jul-06 18:33S 32°56' E 152°05'1010.0
2014-Jul-06 17:33S 32°60' E 151°54'7 6.8
2014-Jul-06 16:33S 32°55' E 151°47'3 2.6
2014-Jul-06 15:33S 32°53' E 151°46'0 0.1
2014-Jul-06 14:31S 32°53' E 151°46'0 0.0
2014-Jul-06 13:31S 32°53' E 151°46'0 0.0
2014-Jul-06 12:31S 32°53' E 151°46'0 0.0
2014-Jul-06 11:13S 32°53' E 151°46'0 0.0
2014-Jul-06 10:31S 32°53' E 151°46'0 0.0
2014-Jul-06 09:25S 32°53' E 151°46'0 0.0
2014-Jul-06 07:31S 32°53' E 151°46'0 0.0
2014-Jul-06 06:31S 32°53' E 151°46'0 0.0
2014-Jul-06 05:31S 32°53' E 151°46'0 0.0
2014-Jul-06 04:31S 32°53' E 151°46'0 0.0
2014-Jul-06 03:31S 32°53' E 151°46'0 0.0
2014-Jul-06 02:31S 32°53' E 151°46'0 0.1
2014-Jul-06 01:31S 32°53' E 151°46'0 0.1
2014-Jul-06 00:31S 32°53' E 151°46'0 0.0
2014-Jul-05 23:31S 32°53' E 151°46'0 0.0
2014-Jul-05 22:28S 32°53' E 151°46'0 0.1
2014-Jul-05 21:31S 32°53' E 151°46'0 0.1
2014-Jul-05 20:31S 32°53' E 151°46'0 0.0
2014-Jul-05 19:31S 32°53' E 151°46'0 0.0
2014-Jul-05 18:31S 32°53' E 151°46'0 0.0
2014-Jul-05 17:31S 32°53' E 151°46'0 0.0
2014-Jul-05 16:31S 32°53' E 151°46'0 0.0
2014-Jul-05 15:31S 32°53' E 151°46'0 0.0
2014-Jul-05 14:31S 32°53' E 151°46'0 0.0
2014-Jul-05 13:31S 32°53' E 151°46'0 0.0
2014-Jul-05 12:31S 32°53' E 151°46'0 0.1
2014-Jul-05 11:31S 32°53' E 151°46'0 0.0
2014-Jul-05 10:31S 32°53' E 151°46'0 0.1
2014-Jul-05 09:31S 32°53' E 151°46'0 0.1
2014-Jul-05 08:31S 32°53' E 151°46'0 0.0
2014-Jul-05 07:25S 32°53' E 151°46'1 1.0
2014-Jul-05 06:30S 32°54' E 151°46'4 4.6
2014-Jul-05 05:34S 32°56' E 151°51'6 6.0
2014-Jul-05 04:33S 33°02' E 151°51'4 4.5
2014-Jul-05 03:33S 33°06' E 151°49'  
2014-Jun-29 23:13S 33°12' E 151°51'710.2
2014-Jun-29 22:32S 33°07' E 151°57'1010.5
2014-Jun-29 21:33S 32°60' E 152°06'10 9.9
2014-Jun-29 20:33S 32°55' E 152°16'9 9.3
2014-Jun-29 19:33S 32°51' E 152°26'9 8.8
2014-Jun-29 18:33S 32°47' E 152°35'8 8.2
2014-Jun-29 17:33S 32°44' E 152°44'8 8.0
2014-Jun-29 16:33S 32°40' E 152°53'  

Dump ship's entire track history